createdAt,value
2024-04-09T00:00:15.384Z,8.55
2024-04-09T00:02:42.835Z,8.49
2024-04-09T00:05:10.427Z,8.45
2024-04-09T00:07:39.511Z,8.49
2024-04-09T00:10:08.170Z,8.35
2024-04-09T00:12:35.678Z,8.29
2024-04-09T00:15:09.119Z,8.36
2024-04-09T00:17:58.419Z,8.37
2024-04-09T00:20:26.482Z,8.35
2024-04-09T00:22:56.990Z,8.30
2024-04-09T00:25:24.321Z,8.27
2024-04-09T00:27:53.930Z,8.21
2024-04-09T00:30:22.902Z,8.17
2024-04-09T00:32:53.125Z,8.05
2024-04-09T00:35:22.564Z,8.11
2024-04-09T00:37:52.939Z,8.11
2024-04-09T00:40:21.928Z,8.09
2024-04-09T00:42:51.048Z,8.05
2024-04-09T00:45:19.598Z,7.83
2024-04-09T00:47:48.401Z,7.81
2024-04-09T00:50:21.069Z,7.87
2024-04-09T00:52:50.082Z,7.85
2024-04-09T00:55:17.765Z,7.90
2024-04-09T00:57:50.017Z,7.92
2024-04-09T01:00:17.488Z,7.95
2024-04-09T01:02:45.313Z,7.95
2024-04-09T01:05:12.724Z,7.94
2024-04-09T01:07:43.828Z,7.88
2024-04-09T01:10:11.800Z,7.93
2024-04-09T01:12:39.229Z,7.92
2024-04-09T01:15:07.062Z,7.90
2024-04-09T01:17:35.925Z,7.95
2024-04-09T01:20:04.098Z,7.90
2024-04-09T01:22:34.121Z,7.82
2024-04-09T01:25:03.690Z,7.84
2024-04-09T01:27:33.360Z,7.74
2024-04-09T01:30:01.866Z,7.71
2024-04-09T01:32:29.107Z,7.79
2024-04-09T01:34:56.581Z,7.70
2024-04-09T01:37:26.257Z,7.62
2024-04-09T01:39:56.276Z,7.53
2024-04-09T01:42:23.853Z,7.52
2024-04-09T01:44:51.317Z,7.46
2024-04-09T01:47:18.726Z,7.47
2024-04-09T01:49:46.645Z,7.45
2024-04-09T01:52:13.941Z,7.32
2024-04-09T01:54:44.457Z,7.28
2024-04-09T01:57:17.715Z,7.29
2024-04-09T01:59:45.308Z,7.32
2024-04-09T02:02:14.723Z,7.38
2024-04-09T02:04:42.115Z,7.31
2024-04-09T02:07:09.727Z,7.30
2024-04-09T02:09:37.118Z,7.33
2024-04-09T02:12:05.179Z,7.37
2024-04-09T02:14:35.345Z,7.23
2024-04-09T02:17:03.088Z,7.26
2024-04-09T02:19:31.006Z,7.25
2024-04-09T02:21:58.311Z,7.21
2024-04-09T02:24:26.504Z,7.15
2024-04-09T02:26:54.312Z,7.08
2024-04-09T02:29:23.064Z,6.99
2024-04-09T02:31:53.470Z,6.93
2024-04-09T02:34:25.018Z,6.97
2024-04-09T02:36:52.855Z,6.97
2024-04-09T02:39:20.870Z,6.93
2024-04-09T02:41:48.360Z,6.94
2024-04-09T02:44:15.669Z,6.92
2024-04-09T02:46:42.956Z,6.91
2024-04-09T02:49:13.042Z,6.92
2024-04-09T02:51:41.226Z,7.01
2024-04-09T02:54:08.935Z,6.90
2024-04-09T02:56:36.379Z,6.80
2024-04-09T02:59:04.692Z,6.81
2024-04-09T03:01:32.452Z,6.79
2024-04-09T03:04:01.364Z,6.79
2024-04-09T03:06:31.693Z,6.74
2024-04-09T03:08:59.771Z,6.66
2024-04-09T03:11:27.979Z,6.64
2024-04-09T03:13:55.509Z,6.63
2024-04-09T03:16:24.006Z,6.58
2024-04-09T03:18:51.859Z,6.60
2024-04-09T03:21:19.411Z,6.53
2024-04-09T03:23:49.506Z,6.50
2024-04-09T03:26:16.954Z,6.43
2024-04-09T03:28:44.372Z,6.44
2024-04-09T03:31:11.748Z,6.44
2024-04-09T03:33:39.410Z,6.39
2024-04-09T03:36:09.397Z,6.35
2024-04-09T03:38:36.949Z,6.33
2024-04-09T03:41:08.090Z,6.36
2024-04-09T03:43:35.934Z,6.31
2024-04-09T03:46:05.836Z,6.32
2024-04-09T03:48:33.392Z,6.36
2024-04-09T03:51:00.867Z,6.40
2024-04-09T03:53:28.235Z,6.44
2024-04-09T03:55:56.454Z,6.39
2024-04-09T03:58:29.732Z,6.40
2024-04-09T04:00:58.440Z,6.43
2024-04-09T04:03:26.753Z,6.42
2024-04-09T04:05:54.631Z,6.39
2024-04-09T04:08:23.193Z,6.41
2024-04-09T04:10:54.380Z,6.40
2024-04-09T04:13:27.249Z,6.39
2024-04-09T04:15:59.458Z,6.43
2024-04-09T04:18:27.075Z,6.42
2024-04-09T04:20:54.739Z,6.47
2024-04-09T04:23:22.239Z,6.50
2024-04-09T04:26:01.412Z,6.54
2024-04-09T04:28:31.611Z,6.59
2024-04-09T04:30:59.253Z,6.64
2024-04-09T04:33:26.902Z,6.68
2024-04-09T04:35:54.672Z,6.74
2024-04-09T04:38:22.180Z,6.84
2024-04-09T04:40:49.750Z,6.94
2024-04-09T04:43:17.539Z,7.02
2024-04-09T04:45:48.604Z,7.10
2024-04-09T04:48:16.438Z,7.27
2024-04-09T04:50:43.822Z,7.35
2024-04-09T04:53:11.275Z,7.51
2024-04-09T04:55:38.940Z,7.67
2024-04-09T04:58:06.919Z,7.78
2024-04-09T05:00:36.649Z,7.90
2024-04-09T05:03:06.957Z,8.10
2024-04-09T05:05:35.448Z,8.22
2024-04-09T05:08:03.040Z,8.34
2024-04-09T05:10:30.531Z,8.51
2024-04-09T05:12:57.931Z,8.67
2024-04-09T05:15:25.710Z,8.83
2024-04-09T05:17:53.496Z,8.96
2024-04-09T05:20:28.386Z,9.05
2024-04-09T05:22:58.189Z,9.16
2024-04-09T05:25:28.649Z,9.26
2024-04-09T05:27:56.414Z,9.41
2024-04-09T05:30:24.227Z,9.55
2024-04-09T05:32:51.866Z,9.66
2024-04-09T05:35:21.665Z,9.79
2024-04-09T05:37:51.919Z,9.91
2024-04-09T05:40:19.575Z,9.99
2024-04-09T05:42:50.133Z,10.12
2024-04-09T05:45:20.742Z,10.24
2024-04-09T05:47:48.441Z,10.34
2024-04-09T05:50:16.096Z,10.50
2024-04-09T05:52:43.438Z,10.62
2024-04-09T05:55:14.192Z,10.74
2024-04-09T05:57:42.592Z,10.90
2024-04-09T06:00:15.968Z,11.01
2024-04-09T06:02:45.612Z,11.15
2024-04-09T06:05:13.161Z,11.27
2024-04-09T06:07:40.444Z,11.40
2024-04-09T06:10:08.071Z,11.54
2024-04-09T06:12:38.295Z,11.68
2024-04-09T06:15:07.070Z,11.83
2024-04-09T06:17:34.588Z,11.96
2024-04-09T06:20:02.156Z,12.08
2024-04-09T06:22:29.555Z,12.24
2024-04-09T06:24:57.967Z,12.37
2024-04-09T06:27:25.637Z,12.50
2024-04-09T06:29:56.563Z,12.59
2024-04-09T06:32:24.104Z,12.75
2024-04-09T06:34:52.093Z,12.86
2024-04-09T06:37:19.575Z,12.98
2024-04-09T06:39:48.124Z,13.15
2024-04-09T06:42:15.997Z,13.27
2024-04-09T06:44:43.364Z,13.40
2024-04-09T06:47:13.632Z,13.56
2024-04-09T06:49:44.538Z,13.74
2024-04-09T06:52:12.227Z,13.88
2024-04-09T06:54:39.877Z,14.02
2024-04-09T06:57:07.515Z,14.14
2024-04-09T06:59:34.889Z,14.30
2024-04-09T07:02:03.080Z,14.49
2024-04-09T07:04:33.337Z,14.64
2024-04-09T07:07:01.478Z,14.77
2024-04-09T07:09:29.061Z,14.83
2024-04-09T07:11:56.432Z,14.93
2024-04-09T07:14:23.892Z,15.11
2024-04-09T07:16:51.427Z,15.34
2024-04-09T07:19:18.801Z,15.47
2024-04-09T07:21:50.384Z,15.69
2024-04-09T07:24:17.878Z,15.83
2024-04-09T07:26:45.352Z,15.98
2024-04-09T07:29:14.483Z,16.08
2024-04-09T07:31:42.823Z,16.28
2024-04-09T07:34:10.755Z,16.40
2024-04-09T07:36:39.075Z,16.56
2024-04-09T07:39:09.554Z,16.78
2024-04-09T07:41:37.051Z,16.74
2024-04-09T07:44:04.650Z,16.82
2024-04-09T07:46:31.963Z,16.98
2024-04-09T07:49:01.663Z,17.29
2024-04-09T07:51:30.094Z,17.63
2024-04-09T07:53:57.565Z,17.87
2024-04-09T07:56:27.997Z,18.06
2024-04-09T07:58:55.477Z,18.31
2024-04-09T08:01:22.963Z,18.50
2024-04-09T08:03:50.512Z,18.65
2024-04-09T08:06:18.462Z,18.87
2024-04-09T08:08:48.542Z,19.13
2024-04-09T08:11:17.155Z,19.38
2024-04-09T08:13:47.348Z,19.41
2024-04-09T08:16:15.177Z,19.62
2024-04-09T08:18:43.153Z,19.57
2024-04-09T08:21:11.620Z,19.80
2024-04-09T08:23:39.471Z,20.09
2024-04-09T08:26:07.036Z,20.28
2024-04-09T08:28:34.574Z,20.58
2024-04-09T08:31:07.034Z,20.78
2024-04-09T08:33:36.014Z,21.05
2024-04-09T08:36:03.979Z,21.23
2024-04-09T08:38:32.452Z,21.36
2024-04-09T08:40:59.964Z,21.62
2024-04-09T08:43:28.515Z,21.92
2024-04-09T08:45:58.528Z,22.14
2024-04-09T08:48:29.728Z,22.41
2024-04-09T08:50:58.785Z,22.56
2024-04-09T08:53:30.413Z,22.63
2024-04-09T08:55:57.880Z,22.77
2024-04-09T08:58:25.222Z,22.83
2024-04-09T09:00:52.692Z,23.06
2024-04-09T09:03:20.265Z,23.26
2024-04-09T09:06:01.825Z,23.54
2024-04-09T09:08:40.304Z,23.16
2024-04-09T09:11:08.600Z,23.28
2024-04-09T09:13:36.204Z,23.74
2024-04-09T09:16:07.549Z,24.06
2024-04-09T09:18:35.318Z,24.29
2024-04-09T09:21:06.685Z,24.37
2024-04-09T09:23:35.296Z,24.56
2024-04-09T09:26:03.813Z,24.79
2024-04-09T09:28:31.249Z,25.02
2024-04-09T09:30:58.552Z,25.24
2024-04-09T09:33:33.523Z,25.45
2024-04-09T09:36:01.187Z,25.66
2024-04-09T09:38:31.788Z,25.83
2024-04-09T09:41:00.234Z,26.08
2024-04-09T09:43:28.131Z,26.38
2024-04-09T09:45:56.377Z,26.50
2024-04-09T09:48:27.717Z,26.77
2024-04-09T09:50:55.712Z,26.98
2024-04-09T09:53:23.795Z,27.12
2024-04-09T09:55:57.038Z,27.36
2024-04-09T09:58:27.136Z,27.53
2024-04-09T10:00:55.031Z,27.84
2024-04-09T10:03:23.147Z,28.07
2024-04-09T10:05:50.878Z,28.23
2024-04-09T10:08:21.746Z,28.41
2024-04-09T10:10:50.593Z,28.49
2024-04-09T10:13:25.577Z,28.60
2024-04-09T10:15:57.365Z,28.50
2024-04-09T10:18:36.294Z,28.58
2024-04-09T10:21:05.339Z,28.69
2024-04-09T10:23:36.673Z,28.85
2024-04-09T10:26:07.065Z,29.05
2024-04-09T10:28:37.921Z,29.08
2024-04-09T10:31:06.393Z,29.03
2024-04-09T10:33:35.284Z,28.82
2024-04-09T10:36:07.170Z,28.95
2024-04-09T10:38:35.267Z,29.12
2024-04-09T10:41:02.803Z,29.38
2024-04-09T10:43:30.500Z,29.66
2024-04-09T10:46:08.328Z,29.85
2024-04-09T10:48:42.105Z,29.57
2024-04-09T10:51:10.273Z,29.60
2024-04-09T10:53:38.120Z,29.90
2024-04-09T10:56:06.104Z,30.23
2024-04-09T10:58:38.631Z,30.35
2024-04-09T11:01:14.179Z,30.32
2024-04-09T11:03:42.088Z,30.49
2024-04-09T11:06:09.662Z,30.46
2024-04-09T11:08:37.869Z,30.55
2024-04-09T11:11:05.476Z,30.65
2024-04-09T11:13:33.406Z,30.72
2024-04-09T11:16:03.955Z,30.66
2024-04-09T11:18:34.529Z,30.77
2024-04-09T11:21:03.011Z,30.80
2024-04-09T11:23:33.558Z,30.98
2024-04-09T11:26:03.385Z,31.08
2024-04-09T11:28:32.525Z,30.58
2024-04-09T11:31:01.571Z,30.11
2024-04-09T11:33:29.880Z,30.36
2024-04-09T11:36:05.213Z,30.66
2024-04-09T11:38:37.746Z,30.81
2024-04-09T11:41:05.025Z,30.97
2024-04-09T11:43:32.551Z,31.16
2024-04-09T11:46:00.542Z,31.05
2024-04-09T11:48:28.149Z,31.34
2024-04-09T11:50:55.659Z,31.52
2024-04-09T11:53:25.867Z,31.75
2024-04-09T11:55:55.112Z,31.86
2024-04-09T11:58:22.725Z,31.74
2024-04-09T12:00:50.262Z,31.65
2024-04-09T12:03:17.958Z,31.89
2024-04-09T12:05:45.761Z,32.21
2024-04-09T12:08:13.221Z,32.54
2024-04-09T12:10:43.260Z,32.14
2024-04-09T12:13:10.724Z,32.18
2024-04-09T12:15:38.068Z,32.06
2024-04-09T12:18:05.909Z,32.03
2024-04-09T12:20:33.540Z,32.18
2024-04-09T12:23:00.955Z,32.39
2024-04-09T12:25:29.155Z,32.25
2024-04-09T12:27:59.244Z,32.23
2024-04-09T12:30:26.852Z,32.14
2024-04-09T12:32:54.422Z,32.31
2024-04-09T12:35:23.442Z,32.53
2024-04-09T12:37:51.442Z,32.58
2024-04-09T12:40:18.910Z,32.74
2024-04-09T12:42:46.431Z,32.85
2024-04-09T12:45:17.255Z,33.13
2024-04-09T12:47:44.873Z,32.78
2024-04-09T12:50:16.107Z,32.93
2024-04-09T12:52:43.558Z,32.98
2024-04-09T12:55:11.910Z,32.79
2024-04-09T12:57:39.414Z,32.82
2024-04-09T13:00:30.782Z,32.87
2024-04-09T13:03:02.216Z,32.98
2024-04-09T13:05:29.916Z,32.95
2024-04-09T13:07:57.389Z,33.03
2024-04-09T13:10:24.778Z,32.85
2024-04-09T13:12:52.299Z,32.85
2024-04-09T13:17:50.439Z,33.00
2024-04-09T13:20:20.486Z,32.99
2024-04-09T13:22:47.885Z,33.14
2024-04-09T13:25:15.280Z,33.39
2024-04-09T13:27:42.620Z,33.51
2024-04-09T13:30:10.688Z,33.55
2024-04-09T13:32:38.266Z,33.44
2024-04-09T13:35:07.018Z,33.37
2024-04-09T13:37:38.780Z,33.34
2024-04-09T13:40:07.174Z,33.35
2024-04-09T13:42:41.057Z,33.14
2024-04-09T13:45:08.866Z,33.27
2024-04-09T13:47:36.352Z,33.53
2024-04-09T13:50:06.985Z,33.61
2024-04-09T13:52:37.171Z,33.75
2024-04-09T13:55:08.503Z,33.84
2024-04-09T13:57:35.958Z,33.82
2024-04-09T14:00:09.011Z,33.98
2024-04-09T14:02:43.893Z,33.65
2024-04-09T14:05:12.201Z,33.66
2024-04-09T14:07:42.642Z,33.79
2024-04-09T14:10:10.252Z,33.73
2024-04-09T14:12:37.874Z,33.83
2024-04-09T14:15:10.459Z,33.68
2024-04-09T14:17:38.977Z,33.88
2024-04-09T14:20:10.548Z,34.12
2024-04-09T14:22:38.404Z,34.02
2024-04-09T14:25:09.914Z,34.22
2024-04-09T14:27:38.895Z,34.16
2024-04-09T14:30:07.571Z,34.13
2024-04-09T14:32:35.160Z,34.21
2024-04-09T14:35:02.684Z,34.21
2024-04-09T14:37:30.335Z,34.20
2024-04-09T14:39:57.688Z,34.16
2024-04-09T14:42:27.736Z,34.16
2024-04-09T14:44:55.080Z,34.16
2024-04-09T14:47:22.585Z,34.16
2024-04-09T14:49:51.273Z,33.96
2024-04-09T14:52:18.713Z,33.94
2024-04-09T14:54:50.033Z,33.94
2024-04-09T14:57:18.250Z,33.94
2024-04-09T14:59:49.294Z,33.90
2024-04-09T15:02:16.734Z,33.82
2024-04-09T15:04:44.302Z,33.46
2024-04-09T15:07:11.710Z,33.00
2024-04-09T15:09:39.810Z,33.16
2024-04-09T15:12:07.997Z,33.23
2024-04-09T15:14:35.806Z,33.33
2024-04-09T15:17:05.888Z,33.35
2024-04-09T15:19:34.578Z,33.41
2024-04-09T15:22:02.174Z,33.22
2024-04-09T15:24:29.533Z,33.03
2024-04-09T15:26:57.697Z,32.80
2024-04-09T15:29:25.989Z,32.55
2024-04-09T15:31:53.357Z,32.35
2024-04-09T15:34:23.486Z,31.97
2024-04-09T15:36:51.776Z,31.82
2024-04-09T15:39:19.065Z,31.88
2024-04-09T15:41:46.468Z,31.90
2024-04-09T15:44:13.811Z,32.01
2024-04-09T15:46:41.310Z,32.02
2024-04-09T15:49:08.851Z,32.07
2024-04-09T15:51:38.911Z,32.05
2024-04-09T15:54:06.567Z,32.02
2024-04-09T15:56:34.393Z,32.05
2024-04-09T15:59:04.446Z,31.93
2024-04-09T16:01:33.771Z,31.71
2024-04-09T16:04:01.176Z,31.31
2024-04-09T16:06:29.528Z,31.04
2024-04-09T16:08:59.464Z,30.84
2024-04-09T16:11:27.037Z,30.71
2024-04-09T16:13:54.735Z,30.46
2024-04-09T16:16:22.072Z,30.23
2024-04-09T16:18:49.776Z,29.75
2024-04-09T16:21:17.170Z,29.19
2024-04-09T16:23:44.429Z,28.57
2024-04-09T16:26:15.363Z,27.90
2024-04-09T16:28:43.820Z,27.31
2024-04-09T16:31:11.243Z,26.42
2024-04-09T16:33:38.717Z,25.72
2024-04-09T16:36:07.601Z,25.22
2024-04-09T16:38:35.396Z,24.88
2024-04-09T16:41:04.047Z,24.50
2024-04-09T16:43:34.176Z,23.76
2024-04-09T16:46:01.581Z,23.06
2024-04-09T16:48:29.023Z,22.42
2024-04-09T16:50:58.655Z,21.97
2024-04-09T16:53:26.240Z,21.50
2024-04-09T16:55:59.035Z,21.09
2024-04-09T16:58:26.489Z,20.81
2024-04-09T17:01:15.040Z,20.65
2024-04-09T17:03:42.482Z,20.48
2024-04-09T17:06:09.929Z,20.33
2024-04-09T17:08:37.425Z,20.00
2024-04-09T17:11:07.335Z,19.79
2024-04-09T17:13:36.573Z,19.60
2024-04-09T17:16:07.970Z,19.25
2024-04-09T17:18:35.664Z,19.12
2024-04-09T17:21:03.402Z,18.88
2024-04-09T17:23:31.197Z,18.76
2024-04-09T17:26:01.700Z,18.50
2024-04-09T17:28:29.716Z,18.40
2024-04-09T17:30:57.597Z,18.33
2024-04-09T17:33:27.575Z,18.17
2024-04-09T17:35:54.984Z,18.11
2024-04-09T17:38:22.525Z,18.10
2024-04-09T17:40:50.022Z,18.00
2024-04-09T17:43:17.335Z,17.95
2024-04-09T17:45:45.743Z,17.91
2024-04-09T17:48:13.476Z,17.77
2024-04-09T17:50:43.802Z,17.71
2024-04-09T17:53:11.219Z,17.65
2024-04-09T17:55:39.885Z,17.61
2024-04-09T17:58:08.176Z,17.41
2024-04-09T18:00:35.704Z,17.29
2024-04-09T18:03:23.318Z,17.16
2024-04-09T18:05:54.638Z,17.12
2024-04-09T18:08:22.285Z,17.01
2024-04-09T18:10:49.971Z,16.95
2024-04-09T18:13:17.411Z,16.89
2024-04-09T18:15:47.384Z,16.92
2024-04-09T18:18:14.750Z,16.76
2024-04-09T18:20:42.142Z,16.41
2024-04-09T18:23:12.763Z,16.29
2024-04-09T18:25:40.248Z,16.32
2024-04-09T18:28:08.931Z,16.29
2024-04-09T18:30:36.270Z,16.20
2024-04-09T18:33:05.877Z,16.02
2024-04-09T18:35:36.188Z,15.97
2024-04-09T18:38:03.826Z,16.01
2024-04-09T18:40:33.940Z,16.24
2024-04-09T18:43:01.366Z,16.39
2024-04-09T18:45:28.705Z,16.56
2024-04-09T18:47:56.252Z,16.66
2024-04-09T18:50:23.733Z,16.80
2024-04-09T18:52:51.236Z,16.88
2024-04-09T18:55:18.507Z,16.92
2024-04-09T18:57:48.506Z,16.96
2024-04-09T19:00:17.415Z,17.03
2024-04-09T19:02:44.797Z,17.09
2024-04-09T19:05:12.105Z,17.12
2024-04-09T19:07:39.450Z,17.17
2024-04-09T19:10:07.793Z,17.18
2024-04-09T19:12:35.107Z,17.18
2024-04-09T19:15:05.568Z,17.16
2024-04-09T19:17:33.211Z,17.13
2024-04-09T19:20:00.780Z,16.96
2024-04-09T19:22:28.338Z,16.75
2024-04-09T19:24:55.707Z,16.64
2024-04-09T19:27:23.152Z,16.52
2024-04-09T19:29:50.627Z,16.41
2024-04-09T19:32:21.047Z,16.12
2024-04-09T19:34:48.768Z,15.93
2024-04-09T19:37:17.203Z,15.79
2024-04-09T19:39:44.566Z,15.80
2024-04-09T19:42:12.467Z,15.77
2024-04-09T19:44:39.761Z,15.73
2024-04-09T19:47:07.203Z,15.71
2024-04-09T19:49:37.274Z,15.67
2024-04-09T19:52:05.266Z,15.54
2024-04-09T19:54:32.884Z,15.45
2024-04-09T19:57:00.230Z,15.25
2024-04-09T19:59:28.778Z,14.77
2024-04-09T20:01:56.379Z,14.36
2024-04-09T20:04:26.310Z,14.02
2024-04-09T20:06:57.307Z,13.94
2024-04-09T20:09:27.514Z,14.03
2024-04-09T20:11:58.172Z,13.95
2024-04-09T20:14:26.051Z,13.88
2024-04-09T20:16:54.353Z,13.69
2024-04-09T20:19:21.956Z,13.60
2024-04-09T20:21:52.554Z,13.53
2024-04-09T20:24:22.645Z,13.56
2024-04-09T20:26:50.372Z,13.48
2024-04-09T20:29:18.174Z,13.33
2024-04-09T20:31:47.383Z,13.29
2024-04-09T20:34:15.295Z,13.22
2024-04-09T20:36:48.306Z,13.19
2024-04-09T20:39:20.725Z,13.12
2024-04-09T20:41:51.015Z,13.12
2024-04-09T20:44:18.514Z,13.05
2024-04-09T20:46:46.259Z,13.09
2024-04-09T20:49:13.941Z,13.08
2024-04-09T20:51:41.498Z,13.13
2024-04-09T20:54:08.919Z,13.19
2024-04-09T20:56:36.354Z,13.15
2024-04-09T20:59:06.526Z,13.01
2024-04-09T21:01:35.444Z,12.88
2024-04-09T21:04:03.847Z,12.85
2024-04-09T21:06:32.631Z,12.76
2024-04-09T21:09:00.266Z,12.67
2024-04-09T21:11:27.681Z,12.53
2024-04-09T21:13:55.223Z,12.27
2024-04-09T21:16:26.014Z,12.25
2024-04-09T21:18:53.704Z,12.25
2024-04-09T21:21:21.825Z,12.23
2024-04-09T21:23:49.412Z,12.13
2024-04-09T21:26:16.739Z,12.10
2024-04-09T21:28:44.795Z,11.95
2024-04-09T21:31:12.177Z,11.87
2024-04-09T21:33:42.372Z,11.82
2024-04-09T21:36:10.275Z,11.70
2024-04-09T21:38:37.743Z,11.65
2024-04-09T21:41:05.633Z,11.70
2024-04-09T21:43:33.339Z,11.54
2024-04-09T21:46:00.706Z,11.59
2024-04-09T21:48:29.199Z,11.38
2024-04-09T21:50:59.454Z,11.40
2024-04-09T21:53:26.944Z,11.22
2024-04-09T21:55:54.657Z,11.19
2024-04-09T21:58:22.140Z,11.17
2024-04-09T22:00:56.545Z,11.12
2024-04-09T22:03:24.236Z,11.04
2024-04-09T22:05:53.776Z,11.01
2024-04-09T22:08:24.803Z,10.97
2024-04-09T22:10:52.673Z,10.88
2024-04-09T22:13:19.996Z,10.85
2024-04-09T22:15:47.308Z,10.83
2024-04-09T22:18:15.013Z,10.84
2024-04-09T22:20:43.083Z,10.75
2024-04-09T22:23:15.766Z,10.71
2024-04-09T22:25:47.358Z,10.70
2024-04-09T22:28:14.826Z,10.69
2024-04-09T22:30:42.519Z,10.60
2024-04-09T22:33:10.147Z,10.61
2024-04-09T22:35:37.947Z,10.49
2024-04-09T22:38:05.530Z,10.41
2024-04-09T22:40:33.537Z,10.45
2024-04-09T22:43:04.009Z,10.46
2024-04-09T22:45:31.406Z,10.42
2024-04-09T22:47:58.848Z,10.41
2024-04-09T22:50:26.308Z,10.36
2024-04-09T22:52:53.874Z,10.36
2024-04-09T22:55:21.393Z,10.35
2024-04-09T22:57:48.735Z,10.34
2024-04-09T23:00:19.098Z,10.21
2024-04-09T23:02:46.518Z,10.16
2024-04-09T23:05:14.075Z,10.15
2024-04-09T23:07:41.532Z,10.00
2024-04-09T23:10:08.976Z,10.09
2024-04-09T23:12:36.829Z,10.10
2024-04-09T23:15:04.872Z,10.11
2024-04-09T23:17:35.023Z,10.18
2024-04-09T23:20:03.096Z,10.19
2024-04-09T23:22:30.455Z,10.16
2024-04-09T23:24:57.789Z,10.10
2024-04-09T23:27:25.216Z,10.06
2024-04-09T23:29:52.515Z,10.07
2024-04-09T23:32:20.406Z,10.09
2024-04-09T23:34:50.508Z,10.00
2024-04-09T23:37:18.855Z,9.93
2024-04-09T23:39:46.245Z,9.90
2024-04-09T23:42:13.605Z,9.91
2024-04-09T23:44:41.030Z,9.87
2024-04-09T23:47:08.619Z,9.73
2024-04-09T23:49:36.151Z,9.65
2024-04-09T23:52:06.238Z,9.62
2024-04-09T23:54:33.842Z,9.67
2024-04-09T23:57:01.213Z,9.69
2024-04-09T23:59:28.727Z,9.71
